Morristown, NJ (07960)

00:22 EDT le 08 juillet 2015 (GMT -0400)
Wheatsheaf | | Change Station
CLOSE
Current Station
Stations météorologiques personnelles
Location: Morristown Township, NJ
Altitude: 406 ft
Stations météo à proximité

Alt. 406 ft 40.81 °N, 74.50 °W | Updated 12 minutes ago

Ciel dégagé
Ciel dégagé
72.5 ° F
Paraît 71 ° F
N
0.0
Vent Variable Vent de SSE
Gusts 0.0 mph

Aujourd'hui
Haut(e) -- | Bas -- ° F
--% Risque de précip.
Hier
Haut(e) -- | Bas -- ° F
Precip. -- pouce
5:34 AM 8:31 PM
Lune gibbeuse décroissante, 58% visible
Pression 29.97 pouce
Visibilité 10.0 Miles terrestres
Nuages Ciel dégagé
indice de chaleur 71 ° F
Point de rosée 68 ° F
Humidité 86%
Précipitations 0.00 pouce
Profondeur de la couche neigeuse Non disponible.
UV 0 sur 12
Pollen 1.50 sur 12
Qualité de l'air Non disponible.
Flu Activity Non disponible.
METAR KMMU 080355Z AUTO 00000KT 10SM CLR 24/21 A2997 RMK AO2

More Conditions Fewer Conditions

Pression 29.97 pouce
Visibilité 10.0 Miles terrestres
Nuages Ciel dégagé
indice de chaleur 71 ° F
Point de rosée 68 ° F
Humidité 86%
Précipitations 0.00 pouce
Profondeur de la couche neigeuse Non disponible.
UV 0 sur 12
Pollen 1.50 sur 12
Qualité de l'air Non disponible.
Flu Activity Non disponible.
METAR KMMU 080355Z AUTO 00000KT 10SM CLR 24/21 A2997 RMK AO2

More Conditions Fewer Conditions

10-Day Weather Forecast

×

Almanac

Astronomie

Jul. 08, 2015 Lever Coucher
Temps réel
Crépuscule civil
Crépuscule nautique
Crépuscule astronomique
Lune
Durée de lumière visible
Longueur du jour
Tomorrow will be .
, % of the Moon is Illuminated

Extrêmes aujourd'hui

State Highs State Lows

Community

WunderPhotos

Upload Photos

1,836,050 Photos téléchargées !

WunderBlogs® & News

Nearby

Qualité de l'air

  Qualité de l'air Indice de la qualité de l'air Polluant
Not available.

Épaisseur de neige

Station Depth Altitude

Activité sismique

Ville Distance Mag. Time & Date
Minimum magnitude displayed is 2.5.

Températures des eaux côtières

Lieu Température

Stations

Stations météo à proximité

Emplacement de la station Température Refroidissement éolien Point de rosée Humidité Vent Precip. Alt. Mise à jour Type